sensor_id;sensor_type;location;lat;lon;timestamp;temperature;humidity
10566;DHT22;5331;48.148;16.326;2023-02-11T00:01:04;0.90;1.00
10566;DHT22;5331;48.148;16.326;2023-02-11T00:03:31;0.80;1.00
10566;DHT22;5331;48.148;16.326;2023-02-11T00:05:59;0.80;1.00
10566;DHT22;5331;48.148;16.326;2023-02-11T00:08:26;0.70;1.00
10566;DHT22;5331;48.148;16.326;2023-02-11T00:10:56;0.60;1.00
10566;DHT22;5331;48.148;16.326;2023-02-11T00:13:24;0.50;1.00
10566;DHT22;5331;48.148;16.326;2023-02-11T00:15:52;0.50;1.00
10566;DHT22;5331;48.148;16.326;2023-02-11T00:18:19;0.50;1.00
10566;DHT22;5331;48.148;16.326;2023-02-11T00:20:46;0.40;1.00
10566;DHT22;5331;48.148;16.326;2023-02-11T00:23:13;0.30;1.00
10566;DHT22;5331;48.148;16.326;2023-02-11T00:25:41;0.20;1.00
10566;DHT22;5331;48.148;16.326;2023-02-11T00:28:10;0.10;1.00
10566;DHT22;5331;48.148;16.326;2023-02-11T00:30:37;0.10;1.00
10566;DHT22;5331;48.148;16.326;2023-02-11T00:33:04;0.10;1.00
10566;DHT22;5331;48.148;16.326;2023-02-11T00:35:31;0.00;1.00
10566;DHT22;5331;48.148;16.326;2023-02-11T00:37:58;0.00;1.00
10566;DHT22;5331;48.148;16.326;2023-02-11T00:40:25;-0.10;1.00
10566;DHT22;5331;48.148;16.326;2023-02-11T00:42:52;-0.10;1.00
10566;DHT22;5331;48.148;16.326;2023-02-11T00:45:20;-0.10;1.00
10566;DHT22;5331;48.148;16.326;2023-02-11T00:47:47;-0.10;1.00
10566;DHT22;5331;48.148;16.326;2023-02-11T00:50:14;-0.10;1.00
10566;DHT22;5331;48.148;16.326;2023-02-11T00:52:41;-0.10;1.00
10566;DHT22;5331;48.148;16.326;2023-02-11T00:55:08;-0.20;1.00
10566;DHT22;5331;48.148;16.326;2023-02-11T00:57:35;-0.30;1.00
10566;DHT22;5331;48.148;16.326;2023-02-11T01:00:04;-0.20;1.00
10566;DHT22;5331;48.148;16.326;2023-02-11T01:02:32;-0.30;1.00
10566;DHT22;5331;48.148;16.326;2023-02-11T01:05:00;-0.40;1.00
10566;DHT22;5331;48.148;16.326;2023-02-11T01:07:27;-0.50;1.00
10566;DHT22;5331;48.148;16.326;2023-02-11T01:09:54;-0.60;1.00
10566;DHT22;5331;48.148;16.326;2023-02-11T01:12:21;-0.70;1.00
10566;DHT22;5331;48.148;16.326;2023-02-11T01:14:48;-0.70;1.00
10566;DHT22;5331;48.148;16.326;2023-02-11T01:17:15;-0.80;1.00
10566;DHT22;5331;48.148;16.326;2023-02-11T01:19:44;-0.90;1.00
10566;DHT22;5331;48.148;16.326;2023-02-11T01:22:11;-0.90;1.00
10566;DHT22;5331;48.148;16.326;2023-02-11T01:24:38;-0.90;1.00
10566;DHT22;5331;48.148;16.326;2023-02-11T01:27:05;-1.00;1.00
10566;DHT22;5331;48.148;16.326;2023-02-11T01:29:32;-1.00;1.00
10566;DHT22;5331;48.148;16.326;2023-02-11T01:31:59;-1.10;1.00
10566;DHT22;5331;48.148;16.326;2023-02-11T01:34:26;-1.20;1.00
10566;DHT22;5331;48.148;16.326;2023-02-11T01:36:57;-1.20;1.00
10566;DHT22;5331;48.148;16.326;2023-02-11T01:39:24;-1.30;1.00
10566;DHT22;5331;48.148;16.326;2023-02-11T01:41:52;-1.30;1.00
10566;DHT22;5331;48.148;16.326;2023-02-11T01:44:24;-1.30;1.00
10566;DHT22;5331;48.148;16.326;2023-02-11T01:46:51;-1.40;1.00
10566;DHT22;5331;48.148;16.326;2023-02-11T01:49:22;-1.40;1.00
10566;DHT22;5331;48.148;16.326;2023-02-11T01:51:53;-1.40;1.00
10566;DHT22;5331;48.148;16.326;2023-02-11T01:54:25;-1.40;1.00
10566;DHT22;5331;48.148;16.326;2023-02-11T01:57:15;-1.40;1.00
10566;DHT22;5331;48.148;16.326;2023-02-11T02:00:01;-1.40;1.00
10566;DHT22;5331;48.148;16.326;2023-02-11T02:02:33;-1.50;1.00
10566;DHT22;5331;48.148;16.326;2023-02-11T02:05:07;-1.50;1.00
10566;DHT22;5331;48.148;16.326;2023-02-11T02:07:41;-1.50;1.00
10566;DHT22;5331;48.148;16.326;2023-02-11T02:10:14;-1.50;1.00
10566;DHT22;5331;48.148;16.326;2023-02-11T02:12:43;-1.50;1.00
10566;DHT22;5331;48.148;16.326;2023-02-11T02:15:25;-1.50;1.00
10566;DHT22;5331;48.148;16.326;2023-02-11T02:18:13;-1.50;1.00
10566;DHT22;5331;48.148;16.326;2023-02-11T02:21:16;-1.60;1.00
10566;DHT22;5331;48.148;16.326;2023-02-11T02:30:13;-1.60;1.00
10566;DHT22;5331;48.148;16.326;2023-02-11T02:33:00;-1.70;1.00
10566;DHT22;5331;48.148;16.326;2023-02-11T02:35:38;-1.70;1.00
10566;DHT22;5331;48.148;16.326;2023-02-11T02:38:10;-1.70;1.00
10566;DHT22;5331;48.148;16.326;2023-02-11T02:40:44;-1.70;1.00
10566;DHT22;5331;48.148;16.326;2023-02-11T02:43:12;-1.70;1.00
10566;DHT22;5331;48.148;16.326;2023-02-11T02:45:40;-1.70;1.00
10566;DHT22;5331;48.148;16.326;2023-02-11T02:48:26;-1.80;1.00
10566;DHT22;5331;48.148;16.326;2023-02-11T02:50:59;-1.80;1.00
10566;DHT22;5331;48.148;16.326;2023-02-11T02:53:41;-1.80;1.00
10566;DHT22;5331;48.148;16.326;2023-02-11T02:56:15;-1.80;1.00
10566;DHT22;5331;48.148;16.326;2023-02-11T02:59:03;-1.80;1.00
10566;DHT22;5331;48.148;16.326;2023-02-11T03:01:41;-1.70;1.00
10566;DHT22;5331;48.148;16.326;2023-02-11T03:04:17;-1.70;1.00
10566;DHT22;5331;48.148;16.326;2023-02-11T03:06:51;-1.50;1.00
10566;DHT22;5331;48.148;16.326;2023-02-11T03:09:22;-1.40;1.00
10566;DHT22;5331;48.148;16.326;2023-02-11T03:11:52;-1.40;1.00
10566;DHT22;5331;48.148;16.326;2023-02-11T03:14:20;-1.30;1.00
10566;DHT22;5331;48.148;16.326;2023-02-11T03:16:49;-1.30;1.00
10566;DHT22;5331;48.148;16.326;2023-02-11T03:19:21;-1.40;1.00
10566;DHT22;5331;48.148;16.326;2023-02-11T03:21:50;-1.40;1.00
10566;DHT22;5331;48.148;16.326;2023-02-11T03:24:21;-1.40;1.00
10566;DHT22;5331;48.148;16.326;2023-02-11T03:26:52;-1.40;1.00
10566;DHT22;5331;48.148;16.326;2023-02-11T03:29:30;-1.40;1.00
10566;DHT22;5331;48.148;16.326;2023-02-11T03:32:02;-1.40;1.00
10566;DHT22;5331;48.148;16.326;2023-02-11T03:34:35;-1.50;1.00
10566;DHT22;5331;48.148;16.326;2023-02-11T03:37:07;-1.60;1.00
10566;DHT22;5331;48.148;16.326;2023-02-11T03:39:38;-1.60;1.00
10566;DHT22;5331;48.148;16.326;2023-02-11T03:42:07;-1.70;1.00
10566;DHT22;5331;48.148;16.326;2023-02-11T03:44:39;-1.70;1.00
10566;DHT22;5331;48.148;16.326;2023-02-11T03:47:08;-1.70;1.00
10566;DHT22;5331;48.148;16.326;2023-02-11T03:49:39;-1.80;1.00
10566;DHT22;5331;48.148;16.326;2023-02-11T03:52:07;-1.80;1.00
10566;DHT22;5331;48.148;16.326;2023-02-11T03:54:37;-1.80;1.00
10566;DHT22;5331;48.148;16.326;2023-02-11T03:57:06;-1.80;1.00
10566;DHT22;5331;48.148;16.326;2023-02-11T03:59:49;-1.80;1.00
10566;DHT22;5331;48.148;16.326;2023-02-11T04:02:16;-1.70;1.00
10566;DHT22;5331;48.148;16.326;2023-02-11T04:04:45;-1.70;1.00
10566;DHT22;5331;48.148;16.326;2023-02-11T04:07:12;-1.60;1.00
10566;DHT22;5331;48.148;16.326;2023-02-11T04:09:39;-1.50;1.00
10566;DHT22;5331;48.148;16.326;2023-02-11T04:12:06;-1.40;1.00
10566;DHT22;5331;48.148;16.326;2023-02-11T04:14:34;-1.30;1.00
10566;DHT22;5331;48.148;16.326;2023-02-11T04:17:01;-1.20;1.00
10566;DHT22;5331;48.148;16.326;2023-02-11T04:19:28;-1.10;1.00
10566;DHT22;5331;48.148;16.326;2023-02-11T04:21:56;-1.10;1.00
10566;DHT22;5331;48.148;16.326;2023-02-11T04:24:24;-1.10;1.00
10566;DHT22;5331;48.148;16.326;2023-02-11T04:26:51;-1.20;1.00
10566;DHT22;5331;48.148;16.326;2023-02-11T04:29:18;-1.20;1.00
10566;DHT22;5331;48.148;16.326;2023-02-11T04:31:45;-1.40;1.00
10566;DHT22;5331;48.148;16.326;2023-02-11T04:34:12;-1.40;1.00
10566;DHT22;5331;48.148;16.326;2023-02-11T04:36:39;-1.40;1.00
10566;DHT22;5331;48.148;16.326;2023-02-11T04:39:07;-1.40;1.00
10566;DHT22;5331;48.148;16.326;2023-02-11T04:41:34;-1.40;1.00
10566;DHT22;5331;48.148;16.326;2023-02-11T04:44:01;-1.50;1.00
10566;DHT22;5331;48.148;16.326;2023-02-11T04:46:28;-1.60;1.00
10566;DHT22;5331;48.148;16.326;2023-02-11T04:48:55;-1.60;1.00
10566;DHT22;5331;48.148;16.326;2023-02-11T04:51:22;-1.70;1.00
10566;DHT22;5331;48.148;16.326;2023-02-11T04:53:49;-1.80;1.00
10566;DHT22;5331;48.148;16.326;2023-02-11T04:56:18;-1.80;1.00
10566;DHT22;5331;48.148;16.326;2023-02-11T04:58:45;-1.80;1.00
10566;DHT22;5331;48.148;16.326;2023-02-11T05:01:13;-1.80;1.00
10566;DHT22;5331;48.148;16.326;2023-02-11T05:03:41;-1.80;1.00
10566;DHT22;5331;48.148;16.326;2023-02-11T05:06:09;-1.70;1.00
10566;DHT22;5331;48.148;16.326;2023-02-11T05:08:37;-1.80;1.00
10566;DHT22;5331;48.148;16.326;2023-02-11T05:11:04;-1.80;1.00
10566;DHT22;5331;48.148;16.326;2023-02-11T05:13:32;-1.80;1.00
10566;DHT22;5331;48.148;16.326;2023-02-11T05:15:59;-1.70;1.00
10566;DHT22;5331;48.148;16.326;2023-02-11T05:18:26;-1.60;1.00
10566;DHT22;5331;48.148;16.326;2023-02-11T05:20:53;-1.60;1.00
10566;DHT22;5331;48.148;16.326;2023-02-11T05:23:20;-1.60;1.00
10566;DHT22;5331;48.148;16.326;2023-02-11T05:25:47;-1.60;1.00
10566;DHT22;5331;48.148;16.326;2023-02-11T05:28:14;-1.60;1.00
10566;DHT22;5331;48.148;16.326;2023-02-11T05:30:43;-1.60;1.00
10566;DHT22;5331;48.148;16.326;2023-02-11T05:33:09;-1.50;1.00
10566;DHT22;5331;48.148;16.326;2023-02-11T05:35:36;-1.40;1.00
10566;DHT22;5331;48.148;16.326;2023-02-11T05:38:03;-1.30;1.00
10566;DHT22;5331;48.148;16.326;2023-02-11T05:40:30;-1.10;1.00
10566;DHT22;5331;48.148;16.326;2023-02-11T05:42:57;-0.80;1.00
10566;DHT22;5331;48.148;16.326;2023-02-11T05:45:24;-0.70;1.00
10566;DHT22;5331;48.148;16.326;2023-02-11T05:47:53;-0.70;1.00
10566;DHT22;5331;48.148;16.326;2023-02-11T05:50:20;-0.80;1.00
10566;DHT22;5331;48.148;16.326;2023-02-11T05:52:47;-0.80;1.00
10566;DHT22;5331;48.148;16.326;2023-02-11T05:55:14;-0.70;1.00
10566;DHT22;5331;48.148;16.326;2023-02-11T05:57:41;-0.60;1.00
10566;DHT22;5331;48.148;16.326;2023-02-11T06:00:09;-0.50;1.00
10566;DHT22;5331;48.148;16.326;2023-02-11T06:02:36;-0.30;1.00
10566;DHT22;5331;48.148;16.326;2023-02-11T06:05:05;0.00;1.00
10566;DHT22;5331;48.148;16.326;2023-02-11T06:07:32;0.50;1.00
10566;DHT22;5331;48.148;16.326;2023-02-11T06:09:59;0.70;1.00
10566;DHT22;5331;48.148;16.326;2023-02-11T06:12:26;0.90;1.00
10566;DHT22;5331;48.148;16.326;2023-02-11T06:14:53;1.10;1.00
10566;DHT22;5331;48.148;16.326;2023-02-11T06:17:20;1.10;1.00
10566;DHT22;5331;48.148;16.326;2023-02-11T06:19:47;1.20;1.00
10566;DHT22;5331;48.148;16.326;2023-02-11T06:22:16;1.40;1.00
10566;DHT22;5331;48.148;16.326;2023-02-11T06:24:43;1.50;1.00
10566;DHT22;5331;48.148;16.326;2023-02-11T06:27:10;1.60;1.00
10566;DHT22;5331;48.148;16.326;2023-02-11T06:29:37;1.50;1.00
10566;DHT22;5331;48.148;16.326;2023-02-11T06:32:04;1.60;1.00
10566;DHT22;5331;48.148;16.326;2023-02-11T06:34:31;1.70;1.00
10566;DHT22;5331;48.148;16.326;2023-02-11T06:36:58;1.80;1.00
10566;DHT22;5331;48.148;16.326;2023-02-11T06:39:26;2.00;1.00
10566;DHT22;5331;48.148;16.326;2023-02-11T06:41:53;2.10;1.00
10566;DHT22;5331;48.148;16.326;2023-02-11T06:44:20;2.20;1.00
10566;DHT22;5331;48.148;16.326;2023-02-11T06:46:54;2.30;1.00
10566;DHT22;5331;48.148;16.326;2023-02-11T06:49:21;2.40;1.00
10566;DHT22;5331;48.148;16.326;2023-02-11T06:51:48;2.40;1.00
10566;DHT22;5331;48.148;16.326;2023-02-11T06:54:15;2.50;1.00
10566;DHT22;5331;48.148;16.326;2023-02-11T06:56:43;2.60;1.00
10566;DHT22;5331;48.148;16.326;2023-02-11T06:59:13;2.80;1.00
10566;DHT22;5331;48.148;16.326;2023-02-11T07:01:41;2.80;1.00
10566;DHT22;5331;48.148;16.326;2023-02-11T07:04:08;2.90;1.00
10566;DHT22;5331;48.148;16.326;2023-02-11T07:06:36;3.00;1.00
10566;DHT22;5331;48.148;16.326;2023-02-11T07:09:03;3.10;1.00
10566;DHT22;5331;48.148;16.326;2023-02-11T07:11:30;3.20;1.00
10566;DHT22;5331;48.148;16.326;2023-02-11T07:14:01;3.30;1.00
10566;DHT22;5331;48.148;16.326;2023-02-11T07:16:29;3.40;1.00
10566;DHT22;5331;48.148;16.326;2023-02-11T07:18:57;3.50;1.00
10566;DHT22;5331;48.148;16.326;2023-02-11T07:21:24;3.80;1.00
10566;DHT22;5331;48.148;16.326;2023-02-11T07:23:52;4.00;1.00
10566;DHT22;5331;48.148;16.326;2023-02-11T07:26:22;4.30;1.00
10566;DHT22;5331;48.148;16.326;2023-02-11T07:28:51;4.50;1.00
10566;DHT22;5331;48.148;16.326;2023-02-11T07:31:23;4.70;1.00
10566;DHT22;5331;48.148;16.326;2023-02-11T07:33:52;4.80;1.00
10566;DHT22;5331;48.148;16.326;2023-02-11T07:36:20;4.80;1.00
10566;DHT22;5331;48.148;16.326;2023-02-11T07:38:48;4.90;1.00
10566;DHT22;5331;48.148;16.326;2023-02-11T07:41:16;4.90;1.00
10566;DHT22;5331;48.148;16.326;2023-02-11T07:43:44;4.90;1.00
10566;DHT22;5331;48.148;16.326;2023-02-11T07:46:13;4.90;1.00
10566;DHT22;5331;48.148;16.326;2023-02-11T07:48:42;4.90;1.00
10566;DHT22;5331;48.148;16.326;2023-02-11T07:51:10;4.90;1.00
10566;DHT22;5331;48.148;16.326;2023-02-11T07:53:38;5.00;1.00
10566;DHT22;5331;48.148;16.326;2023-02-11T07:56:07;5.10;1.00
10566;DHT22;5331;48.148;16.326;2023-02-11T07:58:35;5.10;1.00
10566;DHT22;5331;48.148;16.326;2023-02-11T08:01:04;5.20;1.00
10566;DHT22;5331;48.148;16.326;2023-02-11T08:03:38;5.20;1.00
10566;DHT22;5331;48.148;16.326;2023-02-11T08:06:09;5.20;1.00
10566;DHT22;5331;48.148;16.326;2023-02-11T08:08:41;5.20;1.00
10566;DHT22;5331;48.148;16.326;2023-02-11T08:11:09;5.20;1.00
10566;DHT22;5331;48.148;16.326;2023-02-11T08:13:37;5.20;1.00
10566;DHT22;5331;48.148;16.326;2023-02-11T08:16:05;5.20;1.00
10566;DHT22;5331;48.148;16.326;2023-02-11T08:18:38;5.20;1.00
10566;DHT22;5331;48.148;16.326;2023-02-11T08:21:06;5.30;1.00
10566;DHT22;5331;48.148;16.326;2023-02-11T08:23:36;5.30;1.00
10566;DHT22;5331;48.148;16.326;2023-02-11T08:26:12;5.30;1.00
10566;DHT22;5331;48.148;16.326;2023-02-11T08:28:41;5.40;1.00
10566;DHT22;5331;48.148;16.326;2023-02-11T08:31:10;5.40;1.00
10566;DHT22;5331;48.148;16.326;2023-02-11T08:33:38;5.40;1.00
10566;DHT22;5331;48.148;16.326;2023-02-11T08:36:07;5.40;1.00
10566;DHT22;5331;48.148;16.326;2023-02-11T08:38:37;5.40;1.00
10566;DHT22;5331;48.148;16.326;2023-02-11T08:41:04;5.40;1.00
10566;DHT22;5331;48.148;16.326;2023-02-11T08:43:32;5.40;1.00
10566;DHT22;5331;48.148;16.326;2023-02-11T08:46:02;5.40;1.00
10566;DHT22;5331;48.148;16.326;2023-02-11T08:48:29;5.50;1.00
10566;DHT22;5331;48.148;16.326;2023-02-11T08:50:57;5.50;1.00
10566;DHT22;5331;48.148;16.326;2023-02-11T08:53:25;5.60;1.00
10566;DHT22;5331;48.148;16.326;2023-02-11T08:55:55;5.90;1.00
10566;DHT22;5331;48.148;16.326;2023-02-11T08:58:22;6.30;1.00
10566;DHT22;5331;48.148;16.326;2023-02-11T09:00:50;6.60;1.00
10566;DHT22;5331;48.148;16.326;2023-02-11T09:03:17;6.90;1.00
10566;DHT22;5331;48.148;16.326;2023-02-11T09:05:45;7.00;1.00
10566;DHT22;5331;48.148;16.326;2023-02-11T09:08:13;7.00;1.00
10566;DHT22;5331;48.148;16.326;2023-02-11T09:10:40;7.00;1.00
10566;DHT22;5331;48.148;16.326;2023-02-11T09:13:09;6.90;1.00
10566;DHT22;5331;48.148;16.326;2023-02-11T09:15:36;6.90;1.00
10566;DHT22;5331;48.148;16.326;2023-02-11T09:18:04;6.90;1.00
10566;DHT22;5331;48.148;16.326;2023-02-11T09:20:31;7.00;1.00
10566;DHT22;5331;48.148;16.326;2023-02-11T09:22:58;7.00;1.00
10566;DHT22;5331;48.148;16.326;2023-02-11T09:25:26;7.10;1.00
10566;DHT22;5331;48.148;16.326;2023-02-11T09:27:54;7.00;1.00
10566;DHT22;5331;48.148;16.326;2023-02-11T09:30:23;7.10;1.00
10566;DHT22;5331;48.148;16.326;2023-02-11T09:32:50;7.20;1.00
10566;DHT22;5331;48.148;16.326;2023-02-11T09:35:18;7.30;1.00
10566;DHT22;5331;48.148;16.326;2023-02-11T09:37:46;7.30;1.00
10566;DHT22;5331;48.148;16.326;2023-02-11T09:40:14;7.20;1.00
10566;DHT22;5331;48.148;16.326;2023-02-11T09:42:47;7.30;1.00
10566;DHT22;5331;48.148;16.326;2023-02-11T09:45:18;7.20;1.00
10566;DHT22;5331;48.148;16.326;2023-02-11T09:47:50;7.10;1.00
10566;DHT22;5331;48.148;16.326;2023-02-11T09:50:25;7.00;1.00
10566;DHT22;5331;48.148;16.326;2023-02-11T09:52:57;6.90;1.00
10566;DHT22;5331;48.148;16.326;2023-02-11T09:55:28;6.90;1.00
10566;DHT22;5331;48.148;16.326;2023-02-11T09:57:57;6.90;1.00
10566;DHT22;5331;48.148;16.326;2023-02-11T10:00:27;6.90;1.00
10566;DHT22;5331;48.148;16.326;2023-02-11T10:06:14;6.80;1.00
10566;DHT22;5331;48.148;16.326;2023-02-11T10:08:53;6.90;1.00
10566;DHT22;5331;48.148;16.326;2023-02-11T10:11:29;7.00;1.00
10566;DHT22;5331;48.148;16.326;2023-02-11T10:14:04;7.10;1.00
10566;DHT22;5331;48.148;16.326;2023-02-11T10:16:47;7.30;1.00
10566;DHT22;5331;48.148;16.326;2023-02-11T10:19:35;7.40;1.00
10566;DHT22;5331;48.148;16.326;2023-02-11T10:22:13;7.40;1.00
10566;DHT22;5331;48.148;16.326;2023-02-11T10:24:49;7.40;1.00
10566;DHT22;5331;48.148;16.326;2023-02-11T10:27:19;7.50;1.00
10566;DHT22;5331;48.148;16.326;2023-02-11T10:29:51;7.60;1.00
10566;DHT22;5331;48.148;16.326;2023-02-11T10:32:28;7.60;1.00
10566;DHT22;5331;48.148;16.326;2023-02-11T10:35:00;7.60;1.00
10566;DHT22;5331;48.148;16.326;2023-02-11T10:37:30;7.70;1.00
10566;DHT22;5331;48.148;16.326;2023-02-11T10:39:57;7.70;1.00
10566;DHT22;5331;48.148;16.326;2023-02-11T10:42:24;7.80;1.00
10566;DHT22;5331;48.148;16.326;2023-02-11T10:44:57;7.90;1.00
10566;DHT22;5331;48.148;16.326;2023-02-11T10:47:29;8.00;1.00
10566;DHT22;5331;48.148;16.326;2023-02-11T10:49:58;8.10;1.00
10566;DHT22;5331;48.148;16.326;2023-02-11T10:52:30;8.00;1.00
10566;DHT22;5331;48.148;16.326;2023-02-11T10:55:03;8.00;1.00
10566;DHT22;5331;48.148;16.326;2023-02-11T10:57:35;8.10;1.00
10566;DHT22;5331;48.148;16.326;2023-02-11T11:00:20;8.30;1.00
10566;DHT22;5331;48.148;16.326;2023-02-11T11:02:54;8.40;1.00
10566;DHT22;5331;48.148;16.326;2023-02-11T11:05:29;8.40;1.00
10566;DHT22;5331;48.148;16.326;2023-02-11T11:08:00;8.30;1.00
10566;DHT22;5331;48.148;16.326;2023-02-11T11:10:33;8.40;1.00
10566;DHT22;5331;48.148;16.326;2023-02-11T11:13:03;8.80;1.00
10566;DHT22;5331;48.148;16.326;2023-02-11T11:15:31;9.00;1.00
10566;DHT22;5331;48.148;16.326;2023-02-11T11:18:13;9.30;1.00
10566;DHT22;5331;48.148;16.326;2023-02-11T11:20:43;9.20;1.00
10566;DHT22;5331;48.148;16.326;2023-02-11T11:23:22;9.00;1.00
10566;DHT22;5331;48.148;16.326;2023-02-11T11:26:00;8.90;1.00
10566;DHT22;5331;48.148;16.326;2023-02-11T11:28:30;8.80;1.00
10566;DHT22;5331;48.148;16.326;2023-02-11T11:31:01;8.90;1.00
10566;DHT22;5331;48.148;16.326;2023-02-11T11:33:30;8.90;1.00
10566;DHT22;5331;48.148;16.326;2023-02-11T11:36:03;8.80;1.00
10566;DHT22;5331;48.148;16.326;2023-02-11T11:38:35;8.70;1.00
10566;DHT22;5331;48.148;16.326;2023-02-11T11:41:17;8.70;1.00
10566;DHT22;5331;48.148;16.326;2023-02-11T11:43:59;8.70;1.00
10566;DHT22;5331;48.148;16.326;2023-02-11T11:46:30;8.80;1.00
10566;DHT22;5331;48.148;16.326;2023-02-11T11:49:06;8.70;1.00
10566;DHT22;5331;48.148;16.326;2023-02-11T11:51:36;8.70;1.00
10566;DHT22;5331;48.148;16.326;2023-02-11T11:54:10;8.60;1.00
10566;DHT22;5331;48.148;16.326;2023-02-11T11:56:48;8.50;1.00
10566;DHT22;5331;48.148;16.326;2023-02-11T11:59:16;8.50;1.00
10566;DHT22;5331;48.148;16.326;2023-02-11T12:01:57;8.50;1.00
10566;DHT22;5331;48.148;16.326;2023-02-11T12:04:46;8.50;1.00
10566;DHT22;5331;48.148;16.326;2023-02-11T12:07:28;8.50;1.00
10566;DHT22;5331;48.148;16.326;2023-02-11T12:23:27;8.40;1.00
10566;DHT22;5331;48.148;16.326;2023-02-11T12:26:07;8.30;1.00
10566;DHT22;5331;48.148;16.326;2023-02-11T12:28:50;8.30;1.00
10566;DHT22;5331;48.148;16.326;2023-02-11T12:31:30;8.40;1.00
10566;DHT22;5331;48.148;16.326;2023-02-11T12:34:27;8.40;1.00
10566;DHT22;5331;48.148;16.326;2023-02-11T12:37:01;8.50;1.00
10566;DHT22;5331;48.148;16.326;2023-02-11T12:39:39;8.40;1.00
10566;DHT22;5331;48.148;16.326;2023-02-11T12:42:19;8.40;1.00
10566;DHT22;5331;48.148;16.326;2023-02-11T12:45:20;8.40;1.00
10566;DHT22;5331;48.148;16.326;2023-02-11T12:48:04;8.40;1.00
10566;DHT22;5331;48.148;16.326;2023-02-11T12:50:47;8.50;1.00
10566;DHT22;5331;48.148;16.326;2023-02-11T12:53:34;8.50;1.00
10566;DHT22;5331;48.148;16.326;2023-02-11T12:56:11;8.50;1.00
10566;DHT22;5331;48.148;16.326;2023-02-11T12:58:40;8.60;1.00
10566;DHT22;5331;48.148;16.326;2023-02-11T13:01:11;8.70;1.00
10566;DHT22;5331;48.148;16.326;2023-02-11T13:03:46;8.70;1.00
10566;DHT22;5331;48.148;16.326;2023-02-11T13:06:17;8.70;1.00
10566;DHT22;5331;48.148;16.326;2023-02-11T13:08:51;8.80;1.00
10566;DHT22;5331;48.148;16.326;2023-02-11T13:11:24;8.80;1.00
10566;DHT22;5331;48.148;16.326;2023-02-11T13:13:56;8.70;1.00
10566;DHT22;5331;48.148;16.326;2023-02-11T13:16:33;8.70;1.00
10566;DHT22;5331;48.148;16.326;2023-02-11T13:19:09;8.80;1.00
10566;DHT22;5331;48.148;16.326;2023-02-11T13:21:52;8.90;1.00
10566;DHT22;5331;48.148;16.326;2023-02-11T13:24:27;9.00;1.00
10566;DHT22;5331;48.148;16.326;2023-02-11T13:27:03;9.00;1.00
10566;DHT22;5331;48.148;16.326;2023-02-11T13:29:44;8.90;1.00
10566;DHT22;5331;48.148;16.326;2023-02-11T13:32:23;8.90;1.00
10566;DHT22;5331;48.148;16.326;2023-02-11T13:34:56;8.70;1.00
10566;DHT22;5331;48.148;16.326;2023-02-11T13:37:25;8.50;1.00
10566;DHT22;5331;48.148;16.326;2023-02-11T13:39:58;8.50;1.00
10566;DHT22;5331;48.148;16.326;2023-02-11T13:42:28;8.40;1.00
10566;DHT22;5331;48.148;16.326;2023-02-11T13:44:56;8.40;1.00
10566;DHT22;5331;48.148;16.326;2023-02-11T13:47:27;8.30;1.00
10566;DHT22;5331;48.148;16.326;2023-02-11T13:49:56;8.30;1.00
10566;DHT22;5331;48.148;16.326;2023-02-11T13:52:27;8.20;1.00
10566;DHT22;5331;48.148;16.326;2023-02-11T13:54:56;8.20;1.00
10566;DHT22;5331;48.148;16.326;2023-02-11T13:57:37;8.30;1.00
10566;DHT22;5331;48.148;16.326;2023-02-11T14:06:27;8.40;1.00
10566;DHT22;5331;48.148;16.326;2023-02-11T14:09:37;8.30;1.00
10566;DHT22;5331;48.148;16.326;2023-02-11T14:12:30;8.20;1.00
10566;DHT22;5331;48.148;16.326;2023-02-11T14:15:19;8.20;1.00
10566;DHT22;5331;48.148;16.326;2023-02-11T14:17:47;8.10;1.00
10566;DHT22;5331;48.148;16.326;2023-02-11T14:20:35;8.10;1.00
10566;DHT22;5331;48.148;16.326;2023-02-11T14:23:05;8.00;1.00
10566;DHT22;5331;48.148;16.326;2023-02-11T14:25:33;7.90;1.00
10566;DHT22;5331;48.148;16.326;2023-02-11T14:28:19;7.90;1.00
10566;DHT22;5331;48.148;16.326;2023-02-11T14:30:56;7.80;1.00
10566;DHT22;5331;48.148;16.326;2023-02-11T14:33:49;7.80;1.00
10566;DHT22;5331;48.148;16.326;2023-02-11T14:39:27;7.70;1.00
10566;DHT22;5331;48.148;16.326;2023-02-11T14:42:01;7.60;1.00
10566;DHT22;5331;48.148;16.326;2023-02-11T14:44:30;7.60;1.00
10566;DHT22;5331;48.148;16.326;2023-02-11T14:47:02;7.50;1.00
10566;DHT22;5331;48.148;16.326;2023-02-11T14:49:33;7.50;1.00
10566;DHT22;5331;48.148;16.326;2023-02-11T14:52:07;7.50;1.00
10566;DHT22;5331;48.148;16.326;2023-02-11T14:54:43;7.40;1.00
10566;DHT22;5331;48.148;16.326;2023-02-11T14:57:14;7.30;1.00
10566;DHT22;5331;48.148;16.326;2023-02-11T14:59:54;7.30;1.00
10566;DHT22;5331;48.148;16.326;2023-02-11T15:02:33;7.20;1.00
10566;DHT22;5331;48.148;16.326;2023-02-11T15:05:18;7.20;1.00
10566;DHT22;5331;48.148;16.326;2023-02-11T15:07:48;7.20;1.00
10566;DHT22;5331;48.148;16.326;2023-02-11T15:10:23;7.20;1.00
10566;DHT22;5331;48.148;16.326;2023-02-11T15:12:51;7.20;1.00
10566;DHT22;5331;48.148;16.326;2023-02-11T15:15:19;7.20;1.00
10566;DHT22;5331;48.148;16.326;2023-02-11T15:17:48;7.10;1.00
10566;DHT22;5331;48.148;16.326;2023-02-11T15:20:19;7.00;1.00
10566;DHT22;5331;48.148;16.326;2023-02-11T15:22:51;7.00;1.00
10566;DHT22;5331;48.148;16.326;2023-02-11T15:25:24;6.90;1.00
10566;DHT22;5331;48.148;16.326;2023-02-11T15:27:55;6.90;1.00
10566;DHT22;5331;48.148;16.326;2023-02-11T15:30:25;6.90;1.00
10566;DHT22;5331;48.148;16.326;2023-02-11T15:32:56;6.80;1.00
10566;DHT22;5331;48.148;16.326;2023-02-11T15:35:27;6.80;1.00
10566;DHT22;5331;48.148;16.326;2023-02-11T15:37:56;6.90;1.00
10566;DHT22;5331;48.148;16.326;2023-02-11T15:40:25;6.80;1.00
10566;DHT22;5331;48.148;16.326;2023-02-11T15:42:56;6.90;1.00
10566;DHT22;5331;48.148;16.326;2023-02-11T15:45:25;6.90;1.00
10566;DHT22;5331;48.148;16.326;2023-02-11T15:48:06;6.80;1.00
10566;DHT22;5331;48.148;16.326;2023-02-11T15:50:35;6.80;1.00
10566;DHT22;5331;48.148;16.326;2023-02-11T15:53:21;6.70;1.00
10566;DHT22;5331;48.148;16.326;2023-02-11T15:55:51;6.70;1.00
10566;DHT22;5331;48.148;16.326;2023-02-11T15:58:21;6.70;1.00
10566;DHT22;5331;48.148;16.326;2023-02-11T16:00:51;6.60;1.00
10566;DHT22;5331;48.148;16.326;2023-02-11T16:03:27;6.60;1.00
10566;DHT22;5331;48.148;16.326;2023-02-11T16:06:15;6.60;1.00
10566;DHT22;5331;48.148;16.326;2023-02-11T16:08:55;6.60;1.00
10566;DHT22;5331;48.148;16.326;2023-02-11T16:11:27;6.60;1.00
10566;DHT22;5331;48.148;16.326;2023-02-11T16:14:00;6.60;1.00
10566;DHT22;5331;48.148;16.326;2023-02-11T16:16:30;6.50;1.00
10566;DHT22;5331;48.148;16.326;2023-02-11T16:19:00;6.50;1.00
10566;DHT22;5331;48.148;16.326;2023-02-11T16:21:30;6.40;1.00
10566;DHT22;5331;48.148;16.326;2023-02-11T16:24:14;6.30;1.00
10566;DHT22;5331;48.148;16.326;2023-02-11T16:26:48;6.40;1.00
10566;DHT22;5331;48.148;16.326;2023-02-11T16:29:23;6.40;1.00
10566;DHT22;5331;48.148;16.326;2023-02-11T16:31:53;6.40;1.00
10566;DHT22;5331;48.148;16.326;2023-02-11T16:34:34;6.40;1.00
10566;DHT22;5331;48.148;16.326;2023-02-11T16:37:05;6.30;1.00
10566;DHT22;5331;48.148;16.326;2023-02-11T16:39:33;6.30;1.00
10566;DHT22;5331;48.148;16.326;2023-02-11T16:42:01;6.40;1.00
10566;DHT22;5331;48.148;16.326;2023-02-11T16:44:30;6.50;1.00
10566;DHT22;5331;48.148;16.326;2023-02-11T16:47:00;6.50;1.00
10566;DHT22;5331;48.148;16.326;2023-02-11T16:49:35;6.40;1.00
10566;DHT22;5331;48.148;16.326;2023-02-11T16:52:06;6.40;1.00
10566;DHT22;5331;48.148;16.326;2023-02-11T16:54:34;6.40;1.00
10566;DHT22;5331;48.148;16.326;2023-02-11T16:57:07;6.50;1.00